sensor_id;sensor_type;location;lat;lon;timestamp;P1;durP1;ratioP1;P2;durP2;ratioP2
68993;SDS011;56054;50.968;5.816;2023-01-05T03:21:08;24.67;;;2.67;;
68993;SDS011;56054;50.968;5.816;2023-01-05T03:24:16;18.07;;;2.93;;
68993;SDS011;56054;50.968;5.816;2023-01-05T03:27:41;17.37;;;3.03;;
68993;SDS011;56054;50.968;5.816;2023-01-05T03:31:08;14.93;;;3.03;;
68993;SDS011;56054;50.968;5.816;2023-01-05T03:44:45;16.47;;;3.27;;
68993;SDS011;56054;50.968;5.816;2023-01-05T03:48:06;24.00;;;3.63;;
68993;SDS011;56054;50.968;5.816;2023-01-05T03:51:18;17.40;;;2.47;;
68993;SDS011;56054;50.968;5.816;2023-01-05T03:54:39;25.13;;;2.97;;
68993;SDS011;56054;50.968;5.816;2023-01-05T03:57:46;21.60;;;2.13;;
68993;SDS011;56054;50.968;5.816;2023-01-05T04:04:29;23.53;;;3.70;;
68993;SDS011;56054;50.968;5.816;2023-01-05T04:15:41;18.23;;;2.83;;
68993;SDS011;56054;50.968;5.816;2023-01-05T04:18:50;13.23;;;2.17;;
68993;SDS011;56054;50.968;5.816;2023-01-05T04:21:58;17.27;;;2.90;;
68993;SDS011;56054;50.968;5.816;2023-01-05T04:28:57;23.73;;;3.63;;
68993;SDS011;56054;50.968;5.816;2023-01-05T04:36:36;23.77;;;3.30;;
68993;SDS011;56054;50.968;5.816;2023-01-05T04:39:48;20.37;;;3.33;;
68993;SDS011;56054;50.968;5.816;2023-01-05T04:46:34;30.87;;;3.70;;
68993;SDS011;56054;50.968;5.816;2023-01-05T04:53:35;22.17;;;3.00;;
68993;SDS011;56054;50.968;5.816;2023-01-05T06:06:44;19.87;;;2.93;;
68993;SDS011;56054;50.968;5.816;2023-01-05T06:09:53;30.43;;;3.63;;
68993;SDS011;56054;50.968;5.816;2023-01-05T06:13:05;21.57;;;2.90;;
68993;SDS011;56054;50.968;5.816;2023-01-05T06:16:15;23.50;;;3.40;;
68993;SDS011;56054;50.968;5.816;2023-01-05T06:19:22;22.63;;;3.30;;
68993;SDS011;56054;50.968;5.816;2023-01-05T06:22:36;24.77;;;3.07;;
68993;SDS011;56054;50.968;5.816;2023-01-05T06:25:44;23.60;;;3.00;;
68993;SDS011;56054;50.968;5.816;2023-01-05T06:28:51;25.10;;;3.00;;
68993;SDS011;56054;50.968;5.816;2023-01-05T06:32:01;24.27;;;3.10;;
68993;SDS011;56054;50.968;5.816;2023-01-05T06:35:08;25.93;;;3.60;;
68993;SDS011;56054;50.968;5.816;2023-01-05T06:38:15;26.17;;;3.23;;
68993;SDS011;56054;50.968;5.816;2023-01-05T06:41:22;33.20;;;3.77;;
68993;SDS011;56054;50.968;5.816;2023-01-05T06:44:29;22.13;;;3.33;;
68993;SDS011;56054;50.968;5.816;2023-01-05T06:47:44;23.53;;;2.80;;
68993;SDS011;56054;50.968;5.816;2023-01-05T06:50:52;25.80;;;3.13;;
68993;SDS011;56054;50.968;5.816;2023-01-05T06:53:59;18.23;;;2.77;;
68993;SDS011;56054;50.968;5.816;2023-01-05T07:01:21;26.60;;;2.87;;
68993;SDS011;56054;50.968;5.816;2023-01-05T07:04:35;14.97;;;2.70;;
68993;SDS011;56054;50.968;5.816;2023-01-05T07:07:42;22.93;;;3.33;;
68993;SDS011;56054;50.968;5.816;2023-01-05T07:10:49;33.20;;;3.67;;
68993;SDS011;56054;50.968;5.816;2023-01-05T07:14:01;26.73;;;3.63;;
68993;SDS011;56054;50.968;5.816;2023-01-05T07:17:08;28.37;;;3.80;;
68993;SDS011;56054;50.968;5.816;2023-01-05T07:20:21;36.37;;;4.33;;
68993;SDS011;56054;50.968;5.816;2023-01-05T07:23:54;24.97;;;3.33;;
68993;SDS011;56054;50.968;5.816;2023-01-05T07:27:13;22.60;;;2.90;;
68993;SDS011;56054;50.968;5.816;2023-01-05T07:34:21;24.37;;;3.23;;
68993;SDS011;56054;50.968;5.816;2023-01-05T07:37:49;28.03;;;3.07;;
68993;SDS011;56054;50.968;5.816;2023-01-05T07:41:28;17.70;;;2.77;;
68993;SDS011;56054;50.968;5.816;2023-01-05T07:44:39;35.67;;;3.57;;
68993;SDS011;56054;50.968;5.816;2023-01-05T07:47:55;32.00;;;4.07;;
68993;SDS011;56054;50.968;5.816;2023-01-05T07:51:03;33.67;;;3.93;;
68993;SDS011;56054;50.968;5.816;2023-01-05T07:54:14;29.63;;;4.10;;
68993;SDS011;56054;50.968;5.816;2023-01-05T07:57:24;35.87;;;4.83;;
68993;SDS011;56054;50.968;5.816;2023-01-05T08:01:10;28.57;;;3.67;;
68993;SDS011;56054;50.968;5.816;2023-01-05T08:04:21;29.63;;;3.70;;
68993;SDS011;56054;50.968;5.816;2023-01-05T08:07:28;29.07;;;3.43;;
68993;SDS011;56054;50.968;5.816;2023-01-05T08:10:39;29.40;;;4.07;;
68993;SDS011;56054;50.968;5.816;2023-01-05T08:13:52;28.40;;;3.30;;
68993;SDS011;56054;50.968;5.816;2023-01-05T08:17:25;23.13;;;2.97;;
68993;SDS011;56054;50.968;5.816;2023-01-05T08:20:59;29.97;;;4.67;;
68993;SDS011;56054;50.968;5.816;2023-01-05T08:24:40;22.90;;;3.37;;
68993;SDS011;56054;50.968;5.816;2023-01-05T08:27:47;33.13;;;3.97;;
68993;SDS011;56054;50.968;5.816;2023-01-05T08:30:59;22.87;;;3.87;;
68993;SDS011;56054;50.968;5.816;2023-01-05T08:34:19;35.60;;;4.77;;
68993;SDS011;56054;50.968;5.816;2023-01-05T08:37:26;30.00;;;3.90;;
68993;SDS011;56054;50.968;5.816;2023-01-05T08:40:34;28.40;;;4.13;;
68993;SDS011;56054;50.968;5.816;2023-01-05T08:43:54;26.97;;;4.17;;
68993;SDS011;56054;50.968;5.816;2023-01-05T08:47:07;29.63;;;4.40;;
68993;SDS011;56054;50.968;5.816;2023-01-05T08:50:14;31.20;;;3.67;;
68993;SDS011;56054;50.968;5.816;2023-01-05T08:53:21;38.17;;;4.13;;
68993;SDS011;56054;50.968;5.816;2023-01-05T08:56:28;27.30;;;4.27;;
68993;SDS011;56054;50.968;5.816;2023-01-05T09:00:01;31.43;;;4.00;;
68993;SDS011;56054;50.968;5.816;2023-01-05T09:03:09;26.93;;;3.77;;
68993;SDS011;56054;50.968;5.816;2023-01-05T09:06:16;37.07;;;4.43;;
68993;SDS011;56054;50.968;5.816;2023-01-05T09:09:25;28.13;;;4.43;;
68993;SDS011;56054;50.968;5.816;2023-01-05T09:12:38;25.87;;;3.77;;
68993;SDS011;56054;50.968;5.816;2023-01-05T09:15:50;33.20;;;3.97;;
68993;SDS011;56054;50.968;5.816;2023-01-05T09:18:57;28.53;;;4.20;;
68993;SDS011;56054;50.968;5.816;2023-01-05T09:22:10;33.33;;;3.73;;
68993;SDS011;56054;50.968;5.816;2023-01-05T09:25:19;31.30;;;4.07;;
68993;SDS011;56054;50.968;5.816;2023-01-05T09:28:26;26.97;;;4.00;;
68993;SDS011;56054;50.968;5.816;2023-01-05T09:31:33;33.83;;;4.27;;
68993;SDS011;56054;50.968;5.816;2023-01-05T09:34:49;24.67;;;3.83;;
68993;SDS011;56054;50.968;5.816;2023-01-05T09:37:56;29.03;;;3.43;;
68993;SDS011;56054;50.968;5.816;2023-01-05T09:41:04;23.27;;;3.60;;
68993;SDS011;56054;50.968;5.816;2023-01-05T09:48:38;31.80;;;4.13;;
68993;SDS011;56054;50.968;5.816;2023-01-05T09:52:13;31.77;;;4.07;;
68993;SDS011;56054;50.968;5.816;2023-01-05T09:55:33;29.90;;;3.73;;
68993;SDS011;56054;50.968;5.816;2023-01-05T09:58:42;23.60;;;3.93;;
68993;SDS011;56054;50.968;5.816;2023-01-05T10:01:51;20.43;;;3.53;;
68993;SDS011;56054;50.968;5.816;2023-01-05T10:05:01;26.43;;;3.63;;
68993;SDS011;56054;50.968;5.816;2023-01-05T10:11:23;27.00;;;3.47;;
68993;SDS011;56054;50.968;5.816;2023-01-05T10:14:42;26.80;;;3.77;;
68993;SDS011;56054;50.968;5.816;2023-01-05T10:17:53;39.13;;;4.27;;
68993;SDS011;56054;50.968;5.816;2023-01-05T10:36:15;28.90;;;4.40;;
68993;SDS011;56054;50.968;5.816;2023-01-05T10:46:45;24.43;;;3.37;;
68993;SDS011;56054;50.968;5.816;2023-01-05T10:49:59;25.00;;;3.23;;
68993;SDS011;56054;50.968;5.816;2023-01-05T10:53:12;35.33;;;4.37;;
68993;SDS011;56054;50.968;5.816;2023-01-05T10:56:38;35.90;;;4.17;;
68993;SDS011;56054;50.968;5.816;2023-01-05T11:03:08;22.57;;;3.67;;
68993;SDS011;56054;50.968;5.816;2023-01-05T11:06:34;27.07;;;3.53;;
68993;SDS011;56054;50.968;5.816;2023-01-05T11:09:43;35.87;;;4.77;;
68993;SDS011;56054;50.968;5.816;2023-01-05T11:13:00;25.17;;;2.93;;
68993;SDS011;56054;50.968;5.816;2023-01-05T11:16:16;27.50;;;3.63;;
68993;SDS011;56054;50.968;5.816;2023-01-05T11:19:35;26.90;;;3.80;;
68993;SDS011;56054;50.968;5.816;2023-01-05T11:22:46;42.10;;;5.27;;
68993;SDS011;56054;50.968;5.816;2023-01-05T11:25:54;35.13;;;4.77;;
68993;SDS011;56054;50.968;5.816;2023-01-05T11:29:24;32.37;;;3.93;;
68993;SDS011;56054;50.968;5.816;2023-01-05T11:32:31;32.57;;;5.03;;
68993;SDS011;56054;50.968;5.816;2023-01-05T11:39:19;30.10;;;3.73;;
68993;SDS011;56054;50.968;5.816;2023-01-05T11:42:36;32.27;;;4.20;;
68993;SDS011;56054;50.968;5.816;2023-01-05T11:45:46;30.30;;;4.40;;
68993;SDS011;56054;50.968;5.816;2023-01-05T11:49:05;25.93;;;3.67;;
68993;SDS011;56054;50.968;5.816;2023-01-05T11:55:59;24.37;;;3.47;;
68993;SDS011;56054;50.968;5.816;2023-01-05T11:59:55;27.57;;;3.70;;
68993;SDS011;56054;50.968;5.816;2023-01-05T12:10:41;26.50;;;3.53;;
68993;SDS011;56054;50.968;5.816;2023-01-05T12:19:08;21.67;;;3.13;;
68993;SDS011;56054;50.968;5.816;2023-01-05T12:29:39;27.63;;;3.37;;
68993;SDS011;56054;50.968;5.816;2023-01-05T12:36:34;19.20;;;3.27;;
68993;SDS011;56054;50.968;5.816;2023-01-05T12:51:33;26.67;;;3.97;;
68993;SDS011;56054;50.968;5.816;2023-01-05T12:54:58;33.63;;;4.00;;
68993;SDS011;56054;50.968;5.816;2023-01-05T12:58:21;26.27;;;3.37;;
68993;SDS011;56054;50.968;5.816;2023-01-05T13:01:34;28.07;;;3.53;;
68993;SDS011;56054;50.968;5.816;2023-01-05T13:04:48;32.40;;;3.70;;
68993;SDS011;56054;50.968;5.816;2023-01-05T13:15:33;37.20;;;4.10;;
68993;SDS011;56054;50.968;5.816;2023-01-05T13:19:03;22.43;;;3.57;;
68993;SDS011;56054;50.968;5.816;2023-01-05T13:23:12;29.97;;;3.80;;
68993;SDS011;56054;50.968;5.816;2023-01-05T13:26:24;30.93;;;4.03;;
68993;SDS011;56054;50.968;5.816;2023-01-05T13:29:37;31.33;;;3.73;;
68993;SDS011;56054;50.968;5.816;2023-01-05T13:40:32;34.73;;;4.20;;
68993;SDS011;56054;50.968;5.816;2023-01-05T13:54:11;31.70;;;3.67;;
68993;SDS011;56054;50.968;5.816;2023-01-05T13:57:49;21.77;;;2.50;;
68993;SDS011;56054;50.968;5.816;2023-01-05T14:00:59;26.53;;;4.37;;
68993;SDS011;56054;50.968;5.816;2023-01-05T14:07:38;40.00;;;3.93;;
68993;SDS011;56054;50.968;5.816;2023-01-05T14:11:06;27.30;;;3.83;;
68993;SDS011;56054;50.968;5.816;2023-01-05T14:14:24;23.13;;;3.07;;
68993;SDS011;56054;50.968;5.816;2023-01-05T14:17:58;24.93;;;3.70;;
68993;SDS011;56054;50.968;5.816;2023-01-05T14:21:09;31.13;;;5.20;;
68993;SDS011;56054;50.968;5.816;2023-01-05T14:24:30;28.83;;;3.93;;
68993;SDS011;56054;50.968;5.816;2023-01-05T14:31:41;33.73;;;5.43;;
68993;SDS011;56054;50.968;5.816;2023-01-05T14:34:56;29.20;;;3.87;;
68993;SDS011;56054;50.968;5.816;2023-01-05T14:38:17;27.17;;;3.70;;
68993;SDS011;56054;50.968;5.816;2023-01-05T14:41:30;29.03;;;3.70;;
68993;SDS011;56054;50.968;5.816;2023-01-05T14:44:42;36.10;;;4.80;;
68993;SDS011;56054;50.968;5.816;2023-01-05T14:48:06;41.90;;;4.10;;
68993;SDS011;56054;50.968;5.816;2023-01-05T14:51:35;24.03;;;3.53;;
68993;SDS011;56054;50.968;5.816;2023-01-05T14:57:50;23.27;;;3.87;;
68993;SDS011;56054;50.968;5.816;2023-01-05T15:04:35;29.13;;;3.87;;
68993;SDS011;56054;50.968;5.816;2023-01-05T15:15:08;27.30;;;3.87;;
68993;SDS011;56054;50.968;5.816;2023-01-05T15:25:33;21.07;;;3.50;;
68993;SDS011;56054;50.968;5.816;2023-01-05T15:33:12;28.77;;;5.30;;
68993;SDS011;56054;50.968;5.816;2023-01-05T15:40:26;28.50;;;3.80;;
68993;SDS011;56054;50.968;5.816;2023-01-05T15:43:38;17.70;;;2.83;;
68993;SDS011;56054;50.968;5.816;2023-01-05T15:46:47;26.90;;;3.50;;
68993;SDS011;56054;50.968;5.816;2023-01-05T15:49:58;21.63;;;5.80;;
68993;SDS011;56054;50.968;5.816;2023-01-05T15:53:54;19.53;;;4.03;;
68993;SDS011;56054;50.968;5.816;2023-01-05T15:57:18;23.00;;;3.77;;
68993;SDS011;56054;50.968;5.816;2023-01-05T16:00:27;16.10;;;4.90;;
68993;SDS011;56054;50.968;5.816;2023-01-05T16:03:45;22.43;;;4.13;;
68993;SDS011;56054;50.968;5.816;2023-01-05T16:06:57;7.63;;;2.67;;
68993;SDS011;56054;50.968;5.816;2023-01-05T16:10:27;14.37;;;3.47;;
68993;SDS011;56054;50.968;5.816;2023-01-05T16:17:30;17.63;;;3.73;;
68993;SDS011;56054;50.968;5.816;2023-01-05T16:20:40;19.57;;;3.63;;
68993;SDS011;56054;50.968;5.816;2023-01-05T16:23:54;19.13;;;3.80;;
68993;SDS011;56054;50.968;5.816;2023-01-05T16:27:22;16.43;;;4.97;;
68993;SDS011;56054;50.968;5.816;2023-01-05T16:30:32;14.77;;;4.70;;
68993;SDS011;56054;50.968;5.816;2023-01-05T16:41:20;13.77;;;5.17;;
68993;SDS011;56054;50.968;5.816;2023-01-05T16:44:28;11.40;;;5.17;;
68993;SDS011;56054;50.968;5.816;2023-01-05T16:47:40;14.20;;;4.93;;
68993;SDS011;56054;50.968;5.816;2023-01-05T16:50:56;10.00;;;4.73;;
68993;SDS011;56054;50.968;5.816;2023-01-05T16:57:30;14.60;;;5.70;;
68993;SDS011;56054;50.968;5.816;2023-01-05T17:04:20;15.33;;;7.40;;
68993;SDS011;56054;50.968;5.816;2023-01-05T17:07:27;13.97;;;6.23;;
68993;SDS011;56054;50.968;5.816;2023-01-05T17:11:00;17.47;;;7.20;;
68993;SDS011;56054;50.968;5.816;2023-01-05T17:14:14;16.77;;;7.60;;
68993;SDS011;56054;50.968;5.816;2023-01-05T17:17:22;17.67;;;8.17;;
68993;SDS011;56054;50.968;5.816;2023-01-05T17:20:37;17.80;;;7.83;;
68993;SDS011;56054;50.968;5.816;2023-01-05T17:23:50;17.90;;;7.77;;
68993;SDS011;56054;50.968;5.816;2023-01-05T17:27:04;14.63;;;7.13;;
68993;SDS011;56054;50.968;5.816;2023-01-05T17:30:12;12.13;;;6.80;;
68993;SDS011;56054;50.968;5.816;2023-01-05T17:33:24;17.33;;;7.17;;
68993;SDS011;56054;50.968;5.816;2023-01-05T17:36:31;14.23;;;6.07;;
68993;SDS011;56054;50.968;5.816;2023-01-05T17:39:46;13.37;;;6.47;;
68993;SDS011;56054;50.968;5.816;2023-01-05T17:43:06;10.80;;;6.17;;
68993;SDS011;56054;50.968;5.816;2023-01-05T17:46:28;11.57;;;5.37;;
68993;SDS011;56054;50.968;5.816;2023-01-05T17:50:16;11.93;;;5.53;;
68993;SDS011;56054;50.968;5.816;2023-01-05T17:53:33;10.40;;;6.00;;
68993;SDS011;56054;50.968;5.816;2023-01-05T17:56:40;10.33;;;6.57;;
68993;SDS011;56054;50.968;5.816;2023-01-05T18:00:13;9.47;;;5.60;;
68993;SDS011;56054;50.968;5.816;2023-01-05T18:03:29;11.77;;;5.30;;
68993;SDS011;56054;50.968;5.816;2023-01-05T18:06:55;8.37;;;5.27;;
68993;SDS011;56054;50.968;5.816;2023-01-05T18:10:28;8.93;;;5.23;;
68993;SDS011;56054;50.968;5.816;2023-01-05T18:14:01;10.10;;;5.13;;
68993;SDS011;56054;50.968;5.816;2023-01-05T18:17:33;9.53;;;5.47;;
68993;SDS011;56054;50.968;5.816;2023-01-05T18:20:50;11.07;;;6.07;;
68993;SDS011;56054;50.968;5.816;2023-01-05T18:24:45;12.73;;;7.03;;
68993;SDS011;56054;50.968;5.816;2023-01-05T18:27:52;10.97;;;6.47;;
68993;SDS011;56054;50.968;5.816;2023-01-05T18:31:25;11.13;;;6.80;;
68993;SDS011;56054;50.968;5.816;2023-01-05T18:34:33;11.03;;;7.27;;
68993;SDS011;56054;50.968;5.816;2023-01-05T18:37:44;13.80;;;7.23;;
68993;SDS011;56054;50.968;5.816;2023-01-05T18:40:51;12.70;;;6.63;;
68993;SDS011;56054;50.968;5.816;2023-01-05T18:43:58;10.77;;;6.17;;
68993;SDS011;56054;50.968;5.816;2023-01-05T18:47:05;8.97;;;5.83;;
68993;SDS011;56054;50.968;5.816;2023-01-05T18:50:12;9.00;;;5.97;;
68993;SDS011;56054;50.968;5.816;2023-01-05T18:53:20;10.20;;;6.30;;
68993;SDS011;56054;50.968;5.816;2023-01-05T18:56:27;9.20;;;6.17;;
68993;SDS011;56054;50.968;5.816;2023-01-05T18:59:34;9.63;;;5.90;;
68993;SDS011;56054;50.968;5.816;2023-01-05T19:02:44;8.87;;;5.63;;
68993;SDS011;56054;50.968;5.816;2023-01-05T19:05:51;10.27;;;6.07;;
68993;SDS011;56054;50.968;5.816;2023-01-05T19:09:00;8.10;;;5.80;;
68993;SDS011;56054;50.968;5.816;2023-01-05T19:12:15;9.00;;;5.87;;
68993;SDS011;56054;50.968;5.816;2023-01-05T19:15:22;9.47;;;6.07;;
68993;SDS011;56054;50.968;5.816;2023-01-05T19:18:29;8.73;;;6.27;;
68993;SDS011;56054;50.968;5.816;2023-01-05T19:22:02;9.93;;;5.97;;
68993;SDS011;56054;50.968;5.816;2023-01-05T19:25:09;9.20;;;6.03;;
68993;SDS011;56054;50.968;5.816;2023-01-05T19:28:16;11.87;;;6.33;;
68993;SDS011;56054;50.968;5.816;2023-01-05T19:31:24;10.17;;;6.03;;
68993;SDS011;56054;50.968;5.816;2023-01-05T19:34:31;10.33;;;6.17;;
68993;SDS011;56054;50.968;5.816;2023-01-05T19:37:39;8.23;;;5.40;;
68993;SDS011;56054;50.968;5.816;2023-01-05T19:44:25;10.37;;;6.47;;
68993;SDS011;56054;50.968;5.816;2023-01-05T19:47:32;9.27;;;6.03;;
68993;SDS011;56054;50.968;5.816;2023-01-05T19:50:44;8.83;;;6.07;;
68993;SDS011;56054;50.968;5.816;2023-01-05T19:54:03;11.23;;;6.53;;
68993;SDS011;56054;50.968;5.816;2023-01-05T19:57:26;7.53;;;5.93;;
68993;SDS011;56054;50.968;5.816;2023-01-05T20:00:39;9.93;;;5.97;;
68993;SDS011;56054;50.968;5.816;2023-01-05T20:03:50;8.47;;;5.30;;
68993;SDS011;56054;50.968;5.816;2023-01-05T20:07:04;6.80;;;4.60;;
68993;SDS011;56054;50.968;5.816;2023-01-05T20:10:20;8.23;;;4.67;;
68993;SDS011;56054;50.968;5.816;2023-01-05T20:13:29;4.93;;;3.80;;
68993;SDS011;56054;50.968;5.816;2023-01-05T20:16:56;6.00;;;3.53;;
68993;SDS011;56054;50.968;5.816;2023-01-05T20:20:10;8.70;;;4.40;;
68993;SDS011;56054;50.968;5.816;2023-01-05T20:23:24;5.90;;;2.90;;
68993;SDS011;56054;50.968;5.816;2023-01-05T20:26:31;7.50;;;3.27;;
68993;SDS011;56054;50.968;5.816;2023-01-05T20:29:49;4.00;;;2.70;;
68993;SDS011;56054;50.968;5.816;2023-01-05T20:32:59;4.70;;;2.80;;
68993;SDS011;56054;50.968;5.816;2023-01-05T20:36:06;4.57;;;3.20;;
68993;SDS011;56054;50.968;5.816;2023-01-05T20:39:15;5.83;;;3.27;;
68993;SDS011;56054;50.968;5.816;2023-01-05T20:42:29;4.93;;;3.03;;
68993;SDS011;56054;50.968;5.816;2023-01-05T20:45:55;7.40;;;3.70;;
68993;SDS011;56054;50.968;5.816;2023-01-05T20:49:05;4.47;;;3.07;;
68993;SDS011;56054;50.968;5.816;2023-01-05T20:52:44;5.23;;;3.40;;
68993;SDS011;56054;50.968;5.816;2023-01-05T20:55:51;5.83;;;2.73;;
68993;SDS011;56054;50.968;5.816;2023-01-05T20:58:59;5.90;;;3.03;;
68993;SDS011;56054;50.968;5.816;2023-01-05T21:02:15;6.80;;;3.10;;
68993;SDS011;56054;50.968;5.816;2023-01-05T21:05:23;3.43;;;2.90;;
68993;SDS011;56054;50.968;5.816;2023-01-05T21:08:56;6.00;;;2.93;;
68993;SDS011;56054;50.968;5.816;2023-01-05T21:12:10;4.80;;;2.87;;
68993;SDS011;56054;50.968;5.816;2023-01-05T21:18:55;7.33;;;2.90;;
68993;SDS011;56054;50.968;5.816;2023-01-05T21:22:03;5.03;;;3.07;;
68993;SDS011;56054;50.968;5.816;2023-01-05T21:25:10;6.90;;;2.10;;
68993;SDS011;56054;50.968;5.816;2023-01-05T21:28:17;5.23;;;1.97;;
68993;SDS011;56054;50.968;5.816;2023-01-05T21:31:52;1.87;;;1.33;;
68993;SDS011;56054;50.968;5.816;2023-01-05T21:35:11;4.07;;;1.40;;
68993;SDS011;56054;50.968;5.816;2023-01-05T21:38:18;3.97;;;1.43;;
68993;SDS011;56054;50.968;5.816;2023-01-05T21:41:25;6.00;;;1.50;;
68993;SDS011;56054;50.968;5.816;2023-01-05T21:44:39;5.03;;;1.33;;
68993;SDS011;56054;50.968;5.816;2023-01-05T21:47:59;7.73;;;2.90;;
68993;SDS011;56054;50.968;5.816;2023-01-05T21:51:15;2.90;;;1.20;;
68993;SDS011;56054;50.968;5.816;2023-01-05T21:54:24;6.93;;;1.50;;
68993;SDS011;56054;50.968;5.816;2023-01-05T21:57:35;7.53;;;1.60;;
68993;SDS011;56054;50.968;5.816;2023-01-05T22:11:55;3.53;;;1.33;;
68993;SDS011;56054;50.968;5.816;2023-01-05T22:15:03;4.03;;;1.20;;
68993;SDS011;56054;50.968;5.816;2023-01-05T22:26:14;5.17;;;1.27;;
68993;SDS011;56054;50.968;5.816;2023-01-05T22:33:37;4.73;;;1.17;;
68993;SDS011;56054;50.968;5.816;2023-01-05T22:36:50;4.77;;;1.83;;
68993;SDS011;56054;50.968;5.816;2023-01-05T22:39:57;3.90;;;2.00;;
68993;SDS011;56054;50.968;5.816;2023-01-05T22:43:04;5.73;;;2.33;;
68993;SDS011;56054;50.968;5.816;2023-01-05T22:46:15;3.20;;;2.10;;
68993;SDS011;56054;50.968;5.816;2023-01-05T22:49:24;5.67;;;2.30;;
68993;SDS011;56054;50.968;5.816;2023-01-05T22:53:00;7.67;;;2.67;;
68993;SDS011;56054;50.968;5.816;2023-01-05T22:56:08;4.43;;;2.33;;
68993;SDS011;56054;50.968;5.816;2023-01-05T23:03:35;6.93;;;2.33;;
68993;SDS011;56054;50.968;5.816;2023-01-05T23:06:46;7.23;;;2.17;;
68993;SDS011;56054;50.968;5.816;2023-01-05T23:09:53;8.37;;;2.17;;
68993;SDS011;56054;50.968;5.816;2023-01-05T23:13:07;9.93;;;2.00;;
68993;SDS011;56054;50.968;5.816;2023-01-05T23:16:17;6.00;;;1.50;;
68993;SDS011;56054;50.968;5.816;2023-01-05T23:19:37;4.20;;;1.50;;
68993;SDS011;56054;50.968;5.816;2023-01-05T23:22:46;6.77;;;1.53;;
68993;SDS011;56054;50.968;5.816;2023-01-05T23:25:57;5.10;;;1.40;;
68993;SDS011;56054;50.968;5.816;2023-01-05T23:29:05;4.27;;;1.30;;
68993;SDS011;56054;50.968;5.816;2023-01-05T23:32:17;4.03;;;1.30;;
